sensor_id;sensor_type;location;lat;lon;timestamp;P1;durP1;ratioP1;P2;durP2;ratioP2
62479;SDS011;48526;48.846;2.322;2023-02-14T00:01:45;76.50;;;59.25;;
62479;SDS011;48526;48.846;2.322;2023-02-14T00:04:11;77.25;;;59.50;;
62479;SDS011;48526;48.846;2.322;2023-02-14T00:06:39;76.75;;;58.50;;
62479;SDS011;48526;48.846;2.322;2023-02-14T00:09:05;79.00;;;59.50;;
62479;SDS011;48526;48.846;2.322;2023-02-14T00:11:32;77.75;;;59.50;;
62479;SDS011;48526;48.846;2.322;2023-02-14T00:13:57;82.25;;;61.50;;
62479;SDS011;48526;48.846;2.322;2023-02-14T00:16:41;83.75;;;62.75;;
62479;SDS011;48526;48.846;2.322;2023-02-14T00:19:07;79.25;;;60.00;;
62479;SDS011;48526;48.846;2.322;2023-02-14T00:21:34;75.50;;;58.50;;
62479;SDS011;48526;48.846;2.322;2023-02-14T00:24:10;76.00;;;60.25;;
62479;SDS011;48526;48.846;2.322;2023-02-14T00:26:38;79.50;;;59.00;;
62479;SDS011;48526;48.846;2.322;2023-02-14T00:29:04;76.50;;;59.00;;
62479;SDS011;48526;48.846;2.322;2023-02-14T00:31:31;74.75;;;58.50;;
62479;SDS011;48526;48.846;2.322;2023-02-14T00:33:57;76.75;;;59.50;;
62479;SDS011;48526;48.846;2.322;2023-02-14T00:36:22;74.50;;;59.75;;
62479;SDS011;48526;48.846;2.322;2023-02-14T00:38:47;79.50;;;62.00;;
62479;SDS011;48526;48.846;2.322;2023-02-14T00:41:13;79.50;;;61.00;;
62479;SDS011;48526;48.846;2.322;2023-02-14T00:43:44;82.25;;;62.75;;
62479;SDS011;48526;48.846;2.322;2023-02-14T00:46:12;80.50;;;60.50;;
62479;SDS011;48526;48.846;2.322;2023-02-14T00:48:38;81.75;;;61.75;;
62479;SDS011;48526;48.846;2.322;2023-02-14T00:51:03;82.00;;;61.75;;
62479;SDS011;48526;48.846;2.322;2023-02-14T00:53:29;85.25;;;61.50;;
62479;SDS011;48526;48.846;2.322;2023-02-14T00:55:54;72.75;;;58.50;;
62479;SDS011;48526;48.846;2.322;2023-02-14T00:58:20;81.50;;;60.25;;
62479;SDS011;48526;48.846;2.322;2023-02-14T01:00:48;76.50;;;59.25;;
62479;SDS011;48526;48.846;2.322;2023-02-14T01:03:13;80.25;;;63.75;;
62479;SDS011;48526;48.846;2.322;2023-02-14T01:05:39;81.50;;;60.00;;
62479;SDS011;48526;48.846;2.322;2023-02-14T01:08:05;81.75;;;62.00;;
62479;SDS011;48526;48.846;2.322;2023-02-14T01:10:30;84.00;;;62.75;;
62479;SDS011;48526;48.846;2.322;2023-02-14T01:12:56;83.75;;;64.00;;
62479;SDS011;48526;48.846;2.322;2023-02-14T01:15:23;78.00;;;60.50;;
62479;SDS011;48526;48.846;2.322;2023-02-14T01:17:49;77.25;;;62.00;;
62479;SDS011;48526;48.846;2.322;2023-02-14T01:20:14;83.25;;;62.00;;
62479;SDS011;48526;48.846;2.322;2023-02-14T01:22:40;82.00;;;63.25;;
62479;SDS011;48526;48.846;2.322;2023-02-14T01:25:06;79.50;;;62.25;;
62479;SDS011;48526;48.846;2.322;2023-02-14T01:27:31;85.00;;;65.25;;
62479;SDS011;48526;48.846;2.322;2023-02-14T01:29:57;79.25;;;60.25;;
62479;SDS011;48526;48.846;2.322;2023-02-14T01:32:22;80.50;;;62.50;;
62479;SDS011;48526;48.846;2.322;2023-02-14T01:34:48;58.50;;;46.50;;
62479;SDS011;48526;48.846;2.322;2023-02-14T01:37:14;82.00;;;62.75;;
62479;SDS011;48526;48.846;2.322;2023-02-14T01:39:39;82.75;;;61.50;;
62479;SDS011;48526;48.846;2.322;2023-02-14T01:42:05;82.75;;;63.25;;
62479;SDS011;48526;48.846;2.322;2023-02-14T01:46:59;77.25;;;60.00;;
62479;SDS011;48526;48.846;2.322;2023-02-14T01:50:04;79.25;;;60.25;;
62479;SDS011;48526;48.846;2.322;2023-02-14T01:52:26;83.00;;;60.75;;
62479;SDS011;48526;48.846;2.322;2023-02-14T01:54:59;84.50;;;64.25;;
62479;SDS011;48526;48.846;2.322;2023-02-14T01:57:28;78.75;;;62.75;;
62479;SDS011;48526;48.846;2.322;2023-02-14T02:00:04;86.00;;;64.75;;
62479;SDS011;48526;48.846;2.322;2023-02-14T02:02:49;81.00;;;63.75;;
62479;SDS011;48526;48.846;2.322;2023-02-14T02:05:15;79.50;;;59.00;;
62479;SDS011;48526;48.846;2.322;2023-02-14T02:07:41;78.25;;;59.25;;
62479;SDS011;48526;48.846;2.322;2023-02-14T02:10:07;84.25;;;63.25;;
62479;SDS011;48526;48.846;2.322;2023-02-14T02:12:33;79.75;;;62.00;;
62479;SDS011;48526;48.846;2.322;2023-02-14T02:14:59;78.00;;;61.75;;
62479;SDS011;48526;48.846;2.322;2023-02-14T02:23:30;82.75;;;61.75;;
62479;SDS011;48526;48.846;2.322;2023-02-14T02:29:25;83.00;;;64.00;;
62479;SDS011;48526;48.846;2.322;2023-02-14T02:37:39;81.25;;;63.50;;
62479;SDS011;48526;48.846;2.322;2023-02-14T02:40:43;82.00;;;63.50;;
62479;SDS011;48526;48.846;2.322;2023-02-14T02:46:23;80.25;;;62.25;;
62479;SDS011;48526;48.846;2.322;2023-02-14T02:55:03;82.00;;;64.00;;
62479;SDS011;48526;48.846;2.322;2023-02-14T02:57:33;79.00;;;58.50;;
62479;SDS011;48526;48.846;2.322;2023-02-14T03:00:03;85.25;;;63.50;;
62479;SDS011;48526;48.846;2.322;2023-02-14T03:02:31;82.00;;;64.25;;
62479;SDS011;48526;48.846;2.322;2023-02-14T03:05:18;85.75;;;65.50;;
62479;SDS011;48526;48.846;2.322;2023-02-14T03:07:45;82.75;;;62.50;;
62479;SDS011;48526;48.846;2.322;2023-02-14T03:10:23;84.75;;;64.50;;
62479;SDS011;48526;48.846;2.322;2023-02-14T03:18:52;82.50;;;62.00;;
62479;SDS011;48526;48.846;2.322;2023-02-14T03:21:46;81.00;;;61.00;;
62479;SDS011;48526;48.846;2.322;2023-02-14T03:27:26;84.25;;;64.75;;
62479;SDS011;48526;48.846;2.322;2023-02-14T03:30:44;84.00;;;63.50;;
62479;SDS011;48526;48.846;2.322;2023-02-14T03:33:29;80.75;;;63.25;;
62479;SDS011;48526;48.846;2.322;2023-02-14T03:36:01;79.75;;;60.25;;
62479;SDS011;48526;48.846;2.322;2023-02-14T03:38:40;83.00;;;65.00;;
62479;SDS011;48526;48.846;2.322;2023-02-14T03:41:15;79.75;;;60.00;;
62479;SDS011;48526;48.846;2.322;2023-02-14T03:44:06;86.75;;;64.00;;
62479;SDS011;48526;48.846;2.322;2023-02-14T03:49:23;84.00;;;64.50;;
62479;SDS011;48526;48.846;2.322;2023-02-14T03:52:00;85.00;;;63.25;;
62479;SDS011;48526;48.846;2.322;2023-02-14T03:54:27;83.50;;;62.50;;
62479;SDS011;48526;48.846;2.322;2023-02-14T03:57:27;83.00;;;64.75;;
62479;SDS011;48526;48.846;2.322;2023-02-14T03:59:48;81.00;;;61.75;;
62479;SDS011;48526;48.846;2.322;2023-02-14T04:02:28;84.50;;;64.00;;
62479;SDS011;48526;48.846;2.322;2023-02-14T04:04:59;90.00;;;65.00;;
62479;SDS011;48526;48.846;2.322;2023-02-14T04:07:26;86.00;;;64.00;;
62479;SDS011;48526;48.846;2.322;2023-02-14T04:09:52;88.25;;;64.75;;
62479;SDS011;48526;48.846;2.322;2023-02-14T04:12:19;83.75;;;64.00;;
62479;SDS011;48526;48.846;2.322;2023-02-14T04:14:45;80.25;;;62.75;;
62479;SDS011;48526;48.846;2.322;2023-02-14T04:17:10;86.75;;;65.00;;
62479;SDS011;48526;48.846;2.322;2023-02-14T04:19:54;83.75;;;64.50;;
62479;SDS011;48526;48.846;2.322;2023-02-14T04:22:19;77.75;;;61.50;;
62479;SDS011;48526;48.846;2.322;2023-02-14T04:24:45;87.00;;;64.75;;
62479;SDS011;48526;48.846;2.322;2023-02-14T04:27:10;84.25;;;63.00;;
62479;SDS011;48526;48.846;2.322;2023-02-14T04:32:06;80.00;;;62.50;;
62479;SDS011;48526;48.846;2.322;2023-02-14T04:34:33;85.50;;;63.00;;
62479;SDS011;48526;48.846;2.322;2023-02-14T04:36:59;86.25;;;65.75;;
62479;SDS011;48526;48.846;2.322;2023-02-14T04:39:30;86.00;;;66.75;;
62479;SDS011;48526;48.846;2.322;2023-02-14T04:41:55;87.75;;;65.00;;
62479;SDS011;48526;48.846;2.322;2023-02-14T04:44:21;83.75;;;65.25;;
62479;SDS011;48526;48.846;2.322;2023-02-14T04:46:47;85.50;;;66.50;;
62479;SDS011;48526;48.846;2.322;2023-02-14T04:49:12;85.50;;;65.00;;
62479;SDS011;48526;48.846;2.322;2023-02-14T04:51:38;85.75;;;64.25;;
62479;SDS011;48526;48.846;2.322;2023-02-14T04:54:03;87.00;;;66.33;;
62479;SDS011;48526;48.846;2.322;2023-02-14T04:56:30;81.50;;;62.75;;
62479;SDS011;48526;48.846;2.322;2023-02-14T04:58:55;90.00;;;66.50;;
62479;SDS011;48526;48.846;2.322;2023-02-14T05:01:20;81.67;;;64.00;;
62479;SDS011;48526;48.846;2.322;2023-02-14T05:03:46;86.00;;;66.75;;
62479;SDS011;48526;48.846;2.322;2023-02-14T05:06:11;88.75;;;66.00;;
62479;SDS011;48526;48.846;2.322;2023-02-14T05:08:37;88.75;;;66.50;;
62479;SDS011;48526;48.846;2.322;2023-02-14T05:11:02;84.50;;;64.00;;
62479;SDS011;48526;48.846;2.322;2023-02-14T05:13:28;87.50;;;64.25;;
62479;SDS011;48526;48.846;2.322;2023-02-14T05:15:53;83.00;;;64.50;;
62479;SDS011;48526;48.846;2.322;2023-02-14T05:18:19;90.75;;;67.00;;
62479;SDS011;48526;48.846;2.322;2023-02-14T05:20:50;93.00;;;68.75;;
62479;SDS011;48526;48.846;2.322;2023-02-14T05:23:16;86.00;;;65.00;;
62479;SDS011;48526;48.846;2.322;2023-02-14T05:25:42;83.50;;;64.75;;
62479;SDS011;48526;48.846;2.322;2023-02-14T05:28:08;93.25;;;68.75;;
62479;SDS011;48526;48.846;2.322;2023-02-14T05:30:34;87.00;;;66.50;;
62479;SDS011;48526;48.846;2.322;2023-02-14T05:32:59;87.75;;;67.25;;
62479;SDS011;48526;48.846;2.322;2023-02-14T05:35:28;79.25;;;62.00;;
62479;SDS011;48526;48.846;2.322;2023-02-14T05:37:53;82.75;;;65.50;;
62479;SDS011;48526;48.846;2.322;2023-02-14T05:40:19;79.75;;;63.50;;
62479;SDS011;48526;48.846;2.322;2023-02-14T05:42:45;84.50;;;65.75;;
62479;SDS011;48526;48.846;2.322;2023-02-14T05:45:11;86.50;;;64.00;;
62479;SDS011;48526;48.846;2.322;2023-02-14T05:47:37;87.00;;;65.75;;
62479;SDS011;48526;48.846;2.322;2023-02-14T05:50:03;88.25;;;66.75;;
62479;SDS011;48526;48.846;2.322;2023-02-14T05:52:29;92.00;;;67.75;;
62479;SDS011;48526;48.846;2.322;2023-02-14T06:02:34;83.50;;;64.25;;
62479;SDS011;48526;48.846;2.322;2023-02-14T06:05:00;85.50;;;66.50;;
62479;SDS011;48526;48.846;2.322;2023-02-14T06:07:25;86.00;;;66.25;;
62479;SDS011;48526;48.846;2.322;2023-02-14T06:09:50;87.67;;;66.00;;
62479;SDS011;48526;48.846;2.322;2023-02-14T06:12:36;88.00;;;66.50;;
62479;SDS011;48526;48.846;2.322;2023-02-14T06:15:02;88.50;;;63.50;;
62479;SDS011;48526;48.846;2.322;2023-02-14T06:17:27;86.25;;;65.25;;
62479;SDS011;48526;48.846;2.322;2023-02-14T06:19:53;80.75;;;63.00;;
62479;SDS011;48526;48.846;2.322;2023-02-14T06:22:19;85.50;;;64.25;;
62479;SDS011;48526;48.846;2.322;2023-02-14T06:24:45;91.25;;;65.75;;
62479;SDS011;48526;48.846;2.322;2023-02-14T06:27:10;85.75;;;64.75;;
62479;SDS011;48526;48.846;2.322;2023-02-14T06:29:36;85.25;;;64.00;;
62479;SDS011;48526;48.846;2.322;2023-02-14T06:32:02;81.00;;;61.25;;
62479;SDS011;48526;48.846;2.322;2023-02-14T06:34:30;89.75;;;65.00;;
62479;SDS011;48526;48.846;2.322;2023-02-14T06:36:57;82.75;;;65.25;;
62479;SDS011;48526;48.846;2.322;2023-02-14T06:39:23;86.75;;;63.25;;
62479;SDS011;48526;48.846;2.322;2023-02-14T06:41:50;84.75;;;62.50;;
62479;SDS011;48526;48.846;2.322;2023-02-14T06:44:17;80.50;;;64.00;;
62479;SDS011;48526;48.846;2.322;2023-02-14T06:46:43;83.75;;;64.25;;
62479;SDS011;48526;48.846;2.322;2023-02-14T06:49:11;81.50;;;64.00;;
62479;SDS011;48526;48.846;2.322;2023-02-14T06:51:37;83.50;;;63.25;;
62479;SDS011;48526;48.846;2.322;2023-02-14T06:54:02;92.25;;;64.75;;
62479;SDS011;48526;48.846;2.322;2023-02-14T06:56:28;88.75;;;64.25;;
62479;SDS011;48526;48.846;2.322;2023-02-14T06:58:54;81.50;;;64.00;;
62479;SDS011;48526;48.846;2.322;2023-02-14T07:01:19;86.67;;;64.67;;
62479;SDS011;48526;48.846;2.322;2023-02-14T07:03:44;81.00;;;62.00;;
62479;SDS011;48526;48.846;2.322;2023-02-14T07:06:10;83.50;;;63.25;;
62479;SDS011;48526;48.846;2.322;2023-02-14T07:08:37;82.25;;;63.00;;
62479;SDS011;48526;48.846;2.322;2023-02-14T07:11:02;79.50;;;62.25;;
62479;SDS011;48526;48.846;2.322;2023-02-14T07:13:27;82.50;;;62.00;;
62479;SDS011;48526;48.846;2.322;2023-02-14T07:15:53;81.00;;;62.25;;
62479;SDS011;48526;48.846;2.322;2023-02-14T07:18:20;84.50;;;65.75;;
62479;SDS011;48526;48.846;2.322;2023-02-14T07:20:55;85.75;;;64.50;;
62479;SDS011;48526;48.846;2.322;2023-02-14T07:23:31;85.75;;;63.75;;
62479;SDS011;48526;48.846;2.322;2023-02-14T07:26:00;79.50;;;61.25;;
62479;SDS011;48526;48.846;2.322;2023-02-14T07:28:26;86.75;;;65.00;;
62479;SDS011;48526;48.846;2.322;2023-02-14T07:31:01;81.50;;;63.50;;
62479;SDS011;48526;48.846;2.322;2023-02-14T07:33:37;80.50;;;62.00;;
62479;SDS011;48526;48.846;2.322;2023-02-14T07:36:03;83.25;;;64.00;;
62479;SDS011;48526;48.846;2.322;2023-02-14T07:38:34;68.00;;;49.00;;
62479;SDS011;48526;48.846;2.322;2023-02-14T07:41:10;81.75;;;60.25;;
62479;SDS011;48526;48.846;2.322;2023-02-14T07:46:31;82.50;;;62.75;;
62479;SDS011;48526;48.846;2.322;2023-02-14T07:49:02;86.50;;;65.75;;
62479;SDS011;48526;48.846;2.322;2023-02-14T07:51:27;81.50;;;60.50;;
62479;SDS011;48526;48.846;2.322;2023-02-14T07:53:53;82.00;;;61.25;;
62479;SDS011;48526;48.846;2.322;2023-02-14T07:56:18;90.75;;;65.25;;
62479;SDS011;48526;48.846;2.322;2023-02-14T07:58:44;89.00;;;65.75;;
62479;SDS011;48526;48.846;2.322;2023-02-14T08:01:10;87.50;;;65.50;;
62479;SDS011;48526;48.846;2.322;2023-02-14T08:03:40;87.00;;;64.75;;
62479;SDS011;48526;48.846;2.322;2023-02-14T08:06:13;85.50;;;65.25;;
62479;SDS011;48526;48.846;2.322;2023-02-14T08:08:39;86.50;;;64.75;;
62479;SDS011;48526;48.846;2.322;2023-02-14T08:11:07;83.75;;;64.75;;
62479;SDS011;48526;48.846;2.322;2023-02-14T08:13:33;87.50;;;63.50;;
62479;SDS011;48526;48.846;2.322;2023-02-14T08:16:01;80.75;;;64.00;;
62479;SDS011;48526;48.846;2.322;2023-02-14T08:18:34;85.75;;;62.25;;
62479;SDS011;48526;48.846;2.322;2023-02-14T08:21:04;85.75;;;65.00;;
62479;SDS011;48526;48.846;2.322;2023-02-14T08:23:31;85.25;;;65.50;;
62479;SDS011;48526;48.846;2.322;2023-02-14T08:25:56;87.25;;;66.00;;
62479;SDS011;48526;48.846;2.322;2023-02-14T08:28:22;91.25;;;69.50;;
62479;SDS011;48526;48.846;2.322;2023-02-14T08:30:48;83.50;;;65.25;;
62479;SDS011;48526;48.846;2.322;2023-02-14T08:33:15;85.00;;;66.00;;
62479;SDS011;48526;48.846;2.322;2023-02-14T08:35:41;89.25;;;67.50;;
62479;SDS011;48526;48.846;2.322;2023-02-14T08:38:06;84.50;;;63.50;;
62479;SDS011;48526;48.846;2.322;2023-02-14T08:40:33;83.25;;;61.25;;
62479;SDS011;48526;48.846;2.322;2023-02-14T08:43:04;82.75;;;65.00;;
62479;SDS011;48526;48.846;2.322;2023-02-14T08:45:30;72.00;;;57.25;;
62479;SDS011;48526;48.846;2.322;2023-02-14T08:48:00;80.25;;;60.50;;
62479;SDS011;48526;48.846;2.322;2023-02-14T08:50:28;83.00;;;64.25;;
62479;SDS011;48526;48.846;2.322;2023-02-14T08:52:54;82.50;;;65.00;;
62479;SDS011;48526;48.846;2.322;2023-02-14T08:55:20;91.25;;;67.75;;
62479;SDS011;48526;48.846;2.322;2023-02-14T08:57:45;84.25;;;63.00;;
62479;SDS011;48526;48.846;2.322;2023-02-14T09:00:13;88.75;;;64.75;;
62479;SDS011;48526;48.846;2.322;2023-02-14T09:02:40;80.50;;;63.00;;
62479;SDS011;48526;48.846;2.322;2023-02-14T09:05:06;86.75;;;63.75;;
62479;SDS011;48526;48.846;2.322;2023-02-14T09:07:33;80.50;;;63.00;;
62479;SDS011;48526;48.846;2.322;2023-02-14T09:09:59;87.00;;;65.00;;
62479;SDS011;48526;48.846;2.322;2023-02-14T09:12:24;80.50;;;63.50;;
62479;SDS011;48526;48.846;2.322;2023-02-14T09:14:49;85.00;;;60.50;;
62479;SDS011;48526;48.846;2.322;2023-02-14T09:17:15;86.75;;;65.50;;
62479;SDS011;48526;48.846;2.322;2023-02-14T09:19:43;81.75;;;61.50;;
62479;SDS011;48526;48.846;2.322;2023-02-14T09:22:09;85.50;;;62.75;;
62479;SDS011;48526;48.846;2.322;2023-02-14T09:24:35;96.25;;;78.50;;
62479;SDS011;48526;48.846;2.322;2023-02-14T09:27:02;77.25;;;59.25;;
62479;SDS011;48526;48.846;2.322;2023-02-14T09:29:29;81.25;;;63.00;;
62479;SDS011;48526;48.846;2.322;2023-02-14T09:31:55;86.50;;;63.00;;
62479;SDS011;48526;48.846;2.322;2023-02-14T09:34:23;81.00;;;59.25;;
62479;SDS011;48526;48.846;2.322;2023-02-14T09:37:11;79.00;;;59.50;;
62479;SDS011;48526;48.846;2.322;2023-02-14T09:39:37;76.75;;;57.50;;
62479;SDS011;48526;48.846;2.322;2023-02-14T09:44:42;79.25;;;62.50;;
62479;SDS011;48526;48.846;2.322;2023-02-14T09:50:04;83.25;;;62.75;;
62479;SDS011;48526;48.846;2.322;2023-02-14T09:52:31;83.25;;;63.00;;
62479;SDS011;48526;48.846;2.322;2023-02-14T09:54:58;80.00;;;59.50;;
62479;SDS011;48526;48.846;2.322;2023-02-14T09:57:38;88.00;;;63.00;;
62479;SDS011;48526;48.846;2.322;2023-02-14T10:00:18;85.25;;;62.50;;
62479;SDS011;48526;48.846;2.322;2023-02-14T10:05:55;86.00;;;63.25;;
62479;SDS011;48526;48.846;2.322;2023-02-14T10:11:12;85.50;;;64.25;;
62479;SDS011;48526;48.846;2.322;2023-02-14T10:13:43;81.25;;;62.00;;
62479;SDS011;48526;48.846;2.322;2023-02-14T10:18:52;75.00;;;55.75;;
62479;SDS011;48526;48.846;2.322;2023-02-14T10:21:36;77.50;;;59.25;;
62479;SDS011;48526;48.846;2.322;2023-02-14T10:24:26;81.25;;;60.75;;
62479;SDS011;48526;48.846;2.322;2023-02-14T10:26:52;69.75;;;58.00;;
62479;SDS011;48526;48.846;2.322;2023-02-14T10:29:22;78.25;;;60.75;;
62479;SDS011;48526;48.846;2.322;2023-02-14T10:31:56;81.25;;;61.25;;
62479;SDS011;48526;48.846;2.322;2023-02-14T10:45:26;81.00;;;60.00;;
62479;SDS011;48526;48.846;2.322;2023-02-14T10:48:04;77.25;;;60.00;;
62479;SDS011;48526;48.846;2.322;2023-02-14T10:53:38;79.50;;;60.50;;
62479;SDS011;48526;48.846;2.322;2023-02-14T10:56:14;80.00;;;58.00;;
62479;SDS011;48526;48.846;2.322;2023-02-14T10:58:44;76.25;;;57.00;;
62479;SDS011;48526;48.846;2.322;2023-02-14T11:01:12;80.00;;;61.00;;
62479;SDS011;48526;48.846;2.322;2023-02-14T11:03:40;83.25;;;63.00;;
62479;SDS011;48526;48.846;2.322;2023-02-14T11:06:07;78.25;;;59.50;;
62479;SDS011;48526;48.846;2.322;2023-02-14T11:08:34;83.25;;;60.00;;
62479;SDS011;48526;48.846;2.322;2023-02-14T11:13:39;73.25;;;58.00;;
62479;SDS011;48526;48.846;2.322;2023-02-14T11:16:06;75.50;;;57.50;;
62479;SDS011;48526;48.846;2.322;2023-02-14T11:18:33;74.50;;;56.50;;
62479;SDS011;48526;48.846;2.322;2023-02-14T11:21:05;72.75;;;53.00;;
62479;SDS011;48526;48.846;2.322;2023-02-14T11:23:33;72.25;;;56.00;;
62479;SDS011;48526;48.846;2.322;2023-02-14T11:26:04;79.50;;;59.00;;
62479;SDS011;48526;48.846;2.322;2023-02-14T11:28:34;71.75;;;56.00;;
62479;SDS011;48526;48.846;2.322;2023-02-14T11:31:02;76.25;;;56.50;;
62479;SDS011;48526;48.846;2.322;2023-02-14T11:33:38;71.00;;;55.00;;
62479;SDS011;48526;48.846;2.322;2023-02-14T11:36:09;76.50;;;55.75;;
62479;SDS011;48526;48.846;2.322;2023-02-14T11:38:37;73.00;;;55.50;;
62479;SDS011;48526;48.846;2.322;2023-02-14T11:41:05;72.75;;;55.00;;
62479;SDS011;48526;48.846;2.322;2023-02-14T11:43:36;69.50;;;53.75;;
62479;SDS011;48526;48.846;2.322;2023-02-14T11:46:06;73.75;;;56.50;;
62479;SDS011;48526;48.846;2.322;2023-02-14T11:48:54;75.00;;;54.00;;
62479;SDS011;48526;48.846;2.322;2023-02-14T11:51:24;77.25;;;56.25;;
62479;SDS011;48526;48.846;2.322;2023-02-14T11:53:55;77.50;;;57.50;;
62479;SDS011;48526;48.846;2.322;2023-02-14T11:56:41;71.25;;;52.50;;
62479;SDS011;48526;48.846;2.322;2023-02-14T11:59:11;67.00;;;54.50;;
62479;SDS011;48526;48.846;2.322;2023-02-14T12:01:45;73.50;;;55.25;;
62479;SDS011;48526;48.846;2.322;2023-02-14T12:04:12;72.25;;;52.75;;
62479;SDS011;48526;48.846;2.322;2023-02-14T12:06:42;70.50;;;53.75;;
62479;SDS011;48526;48.846;2.322;2023-02-14T12:11:57;67.25;;;55.25;;
62479;SDS011;48526;48.846;2.322;2023-02-14T12:14:32;69.00;;;54.50;;
62479;SDS011;48526;48.846;2.322;2023-02-14T12:22:06;68.25;;;51.50;;
62479;SDS011;48526;48.846;2.322;2023-02-14T12:24:34;76.00;;;57.75;;
62479;SDS011;48526;48.846;2.322;2023-02-14T12:34:51;76.00;;;54.75;;
62479;SDS011;48526;48.846;2.322;2023-02-14T12:37:26;75.75;;;56.00;;
62479;SDS011;48526;48.846;2.322;2023-02-14T12:43:10;69.25;;;54.00;;
62479;SDS011;48526;48.846;2.322;2023-02-14T12:48:41;68.00;;;52.50;;
62479;SDS011;48526;48.846;2.322;2023-02-14T12:56:49;61.00;;;49.00;;
62479;SDS011;48526;48.846;2.322;2023-02-14T13:02:18;61.50;;;49.25;;
62479;SDS011;48526;48.846;2.322;2023-02-14T13:05:15;67.50;;;51.25;;
62479;SDS011;48526;48.846;2.322;2023-02-14T13:07:58;65.75;;;52.00;;
62479;SDS011;48526;48.846;2.322;2023-02-14T13:13:37;64.50;;;49.50;;
62479;SDS011;48526;48.846;2.322;2023-02-14T13:21:38;64.00;;;48.25;;
62479;SDS011;48526;48.846;2.322;2023-02-14T13:24:19;59.25;;;47.75;;
62479;SDS011;48526;48.846;2.322;2023-02-14T13:26:48;65.25;;;50.75;;
62479;SDS011;48526;48.846;2.322;2023-02-14T13:29:20;63.50;;;50.00;;
62479;SDS011;48526;48.846;2.322;2023-02-14T13:31:47;64.25;;;48.00;;
62479;SDS011;48526;48.846;2.322;2023-02-14T13:34:18;69.50;;;51.75;;
62479;SDS011;48526;48.846;2.322;2023-02-14T13:36:57;62.25;;;48.50;;
62479;SDS011;48526;48.846;2.322;2023-02-14T13:39:28;60.50;;;48.00;;
62479;SDS011;48526;48.846;2.322;2023-02-14T13:41:56;62.75;;;46.25;;
62479;SDS011;48526;48.846;2.322;2023-02-14T13:44:42;64.00;;;49.25;;
62479;SDS011;48526;48.846;2.322;2023-02-14T13:47:18;65.75;;;50.50;;
62479;SDS011;48526;48.846;2.322;2023-02-14T13:49:49;65.00;;;49.50;;
62479;SDS011;48526;48.846;2.322;2023-02-14T13:55:08;64.25;;;48.75;;
62479;SDS011;48526;48.846;2.322;2023-02-14T13:57:38;58.75;;;46.00;;
62479;SDS011;48526;48.846;2.322;2023-02-14T14:02:55;58.50;;;47.00;;
62479;SDS011;48526;48.846;2.322;2023-02-14T14:10:51;61.25;;;48.00;;
62479;SDS011;48526;48.846;2.322;2023-02-14T14:18:52;61.50;;;48.25;;
62479;SDS011;48526;48.846;2.322;2023-02-14T14:21:26;62.25;;;46.25;;
62479;SDS011;48526;48.846;2.322;2023-02-14T14:26:46;60.25;;;44.50;;
62479;SDS011;48526;48.846;2.322;2023-02-14T14:31:55;58.50;;;46.00;;
62479;SDS011;48526;48.846;2.322;2023-02-14T14:34:24;56.25;;;46.50;;
62479;SDS011;48526;48.846;2.322;2023-02-14T14:37:01;57.50;;;45.50;;
62479;SDS011;48526;48.846;2.322;2023-02-14T14:39:40;63.00;;;47.25;;
62479;SDS011;48526;48.846;2.322;2023-02-14T14:42:11;60.25;;;45.50;;
62479;SDS011;48526;48.846;2.322;2023-02-14T14:44:44;58.50;;;47.00;;
62479;SDS011;48526;48.846;2.322;2023-02-14T14:47:14;59.50;;;45.50;;
62479;SDS011;48526;48.846;2.322;2023-02-14T14:49:41;58.00;;;44.75;;
62479;SDS011;48526;48.846;2.322;2023-02-14T14:52:10;58.75;;;45.75;;
62479;SDS011;48526;48.846;2.322;2023-02-14T14:54:47;60.25;;;47.25;;
62479;SDS011;48526;48.846;2.322;2023-02-14T14:57:12;56.25;;;45.50;;
62479;SDS011;48526;48.846;2.322;2023-02-14T14:59:41;54.75;;;42.00;;
62479;SDS011;48526;48.846;2.322;2023-02-14T15:02:20;60.00;;;44.00;;
62479;SDS011;48526;48.846;2.322;2023-02-14T15:04:50;55.25;;;44.00;;
62479;SDS011;48526;48.846;2.322;2023-02-14T15:07:17;56.25;;;44.25;;
62479;SDS011;48526;48.846;2.322;2023-02-14T15:09:47;58.50;;;44.75;;
62479;SDS011;48526;48.846;2.322;2023-02-14T15:12:14;52.75;;;41.75;;
62479;SDS011;48526;48.846;2.322;2023-02-14T15:15:01;57.50;;;44.25;;
62479;SDS011;48526;48.846;2.322;2023-02-14T15:17:27;61.50;;;48.75;;
62479;SDS011;48526;48.846;2.322;2023-02-14T15:20:41;60.25;;;46.75;;
62479;SDS011;48526;48.846;2.322;2023-02-14T15:22:51;58.25;;;45.00;;
62479;SDS011;48526;48.846;2.322;2023-02-14T15:25:19;56.00;;;46.00;;
62479;SDS011;48526;48.846;2.322;2023-02-14T15:27:47;58.50;;;44.00;;
62479;SDS011;48526;48.846;2.322;2023-02-14T15:32:48;56.00;;;43.00;;
62479;SDS011;48526;48.846;2.322;2023-02-14T15:35:16;60.00;;;43.75;;
62479;SDS011;48526;48.846;2.322;2023-02-14T15:37:46;54.25;;;42.50;;
62479;SDS011;48526;48.846;2.322;2023-02-14T15:40:22;54.50;;;42.50;;
62479;SDS011;48526;48.846;2.322;2023-02-14T15:42:49;56.75;;;42.50;;
62479;SDS011;48526;48.846;2.322;2023-02-14T15:50:26;61.25;;;46.75;;
62479;SDS011;48526;48.846;2.322;2023-02-14T15:55:40;57.50;;;46.25;;
62479;SDS011;48526;48.846;2.322;2023-02-14T15:58:10;52.25;;;41.50;;
62479;SDS011;48526;48.846;2.322;2023-02-14T16:00:41;56.25;;;43.75;;
62479;SDS011;48526;48.846;2.322;2023-02-14T16:03:07;62.00;;;47.25;;
62479;SDS011;48526;48.846;2.322;2023-02-14T16:05:37;55.50;;;44.00;;
62479;SDS011;48526;48.846;2.322;2023-02-14T16:08:06;58.50;;;43.00;;
62479;SDS011;48526;48.846;2.322;2023-02-14T16:13:47;55.75;;;44.25;;
62479;SDS011;48526;48.846;2.322;2023-02-14T16:16:14;52.50;;;41.25;;
62479;SDS011;48526;48.846;2.322;2023-02-14T16:18:41;52.50;;;42.50;;
62479;SDS011;48526;48.846;2.322;2023-02-14T16:23:45;59.25;;;43.00;;
62479;SDS011;48526;48.846;2.322;2023-02-14T16:26:13;24.50;;;14.00;;
62479;SDS011;48526;48.846;2.322;2023-02-14T16:28:39;58.25;;;44.50;;
62479;SDS011;48526;48.846;2.322;2023-02-14T16:31:05;57.25;;;42.50;;
62479;SDS011;48526;48.846;2.322;2023-02-14T16:33:35;58.00;;;43.25;;
62479;SDS011;48526;48.846;2.322;2023-02-14T16:36:25;59.75;;;47.25;;
62479;SDS011;48526;48.846;2.322;2023-02-14T16:39:10;60.25;;;45.25;;
62479;SDS011;48526;48.846;2.322;2023-02-14T16:41:40;51.75;;;41.50;;
62479;SDS011;48526;48.846;2.322;2023-02-14T16:44:17;54.25;;;41.75;;
62479;SDS011;48526;48.846;2.322;2023-02-14T16:46:43;54.00;;;44.25;;
62479;SDS011;48526;48.846;2.322;2023-02-14T16:49:10;56.00;;;42.00;;
62479;SDS011;48526;48.846;2.322;2023-02-14T16:51:37;50.00;;;40.00;;
62479;SDS011;48526;48.846;2.322;2023-02-14T16:54:05;54.00;;;40.00;;
62479;SDS011;48526;48.846;2.322;2023-02-14T16:56:42;54.25;;;42.75;;
62479;SDS011;48526;48.846;2.322;2023-02-14T16:59:15;55.50;;;42.00;;
62479;SDS011;48526;48.846;2.322;2023-02-14T17:01:40;50.25;;;40.25;;
62479;SDS011;48526;48.846;2.322;2023-02-14T17:04:06;50.00;;;39.75;;
62479;SDS011;48526;48.846;2.322;2023-02-14T17:06:31;53.75;;;41.00;;
62479;SDS011;48526;48.846;2.322;2023-02-14T17:08:59;61.00;;;44.75;;
62479;SDS011;48526;48.846;2.322;2023-02-14T17:11:29;55.75;;;42.50;;
62479;SDS011;48526;48.846;2.322;2023-02-14T17:13:56;51.00;;;40.75;;
62479;SDS011;48526;48.846;2.322;2023-02-14T17:16:21;55.25;;;44.00;;